Time;durP1;ratioP1;P1;durP2;ratioP2;P2;SDS_P1;SDS_P2;PMS_P1;PMS_P2;Temp;Humidity;BMP_temperature;BMP_pressure;BME280_temperature;BME280_humidity;BME280_pressure;Samples;Min_cycle;Max_cycle;Signal;HPM_P1;HPM_P2
2023/05/14 00:01:08;;;;;;;3.63;2.25;;;;;;;28.71;32.39;100639.84;7389829;19;20086;-85
2023/05/14 00:03:35;;;;;;;5.30;2.10;;;;;;;28.97;32.14;100624.94;7386710;19;20018;-84
2023/05/14 00:06:02;;;;;;;6.68;2.63;;;;;;;29.35;31.50;100633.97;7392150;19;20031;-84
2023/05/14 00:08:28;;;;;;;5.70;1.90;;;;;;;29.31;31.38;100627.13;7386049;19;20026;-79
2023/05/14 00:10:54;;;;;;;2.63;1.55;;;;;;;29.55;31.37;100617.69;7393557;19;20021;-79
2023/05/14 00:13:20;;;;;;;7.93;2.08;;;;;;;29.39;31.49;100617.09;7392123;19;20029;-79
2023/05/14 00:15:46;;;;;;;6.13;2.53;;;;;;;29.46;30.97;100615.50;7395050;19;20543;-85
2023/05/14 00:18:13;;;;;;;6.20;2.42;;;;;;;29.30;31.11;100614.91;7386815;19;20011;-86
2023/05/14 00:20:39;;;;;;;2.80;1.73;;;;;;;28.90;31.48;100611.41;7392516;19;20018;-85
2023/05/14 00:23:05;;;;;;;10.95;2.78;;;;;;;28.44;31.64;100603.13;7390559;19;20019;-85
2023/05/14 00:25:32;;;;;;;2.97;2.53;;;;;;;28.36;31.63;100608.13;7395296;19;20056;-85
2023/05/14 00:27:58;;;;;;;6.78;3.13;;;;;;;28.45;31.49;100593.19;7401715;19;20015;-86
2023/05/14 00:30:24;;;;;;;10.40;3.72;;;;;;;28.49;31.95;100602.13;7394109;19;20014;-85
2023/05/14 00:32:50;;;;;;;7.30;2.92;;;;;;;28.66;31.35;100597.81;7396082;19;20014;-84
2023/05/14 00:35:16;;;;;;;6.95;1.50;;;;;;;28.60;31.85;100589.47;7395088;19;20022;-84
2023/05/14 00:37:42;;;;;;;6.05;2.95;;;;;;;28.75;31.26;100588.59;7399676;19;20078;-84
2023/05/14 00:40:11;;;;;;;5.32;2.05;;;;;;;28.65;31.81;100582.00;7392550;19;20021;-85
2023/05/14 00:42:41;;;;;;;2.70;2.33;;;;;;;28.52;31.49;100583.75;7397080;19;20014;-84
2023/05/14 00:45:07;;;;;;;12.10;2.75;;;;;;;28.47;31.88;100579.03;7395046;19;20014;-84
2023/05/14 00:47:33;;;;;;;5.10;1.90;;;;;;;28.62;31.30;100577.41;7395350;19;20023;-85
2023/05/14 00:50:01;;;;;;;6.70;2.05;;;;;;;28.35;31.53;100574.34;7398017;19;20030;-85
2023/05/14 00:52:27;;;;;;;4.07;1.92;;;;;;;28.43;31.80;100570.09;7394665;19;20011;-84
2023/05/14 00:54:53;;;;;;;8.18;2.83;;;;;;;28.35;31.79;100572.22;7395606;19;20050;-84
2023/05/14 00:57:20;;;;;;;2.28;1.85;;;;;;;28.58;31.34;100568.47;7394667;19;20386;-86
2023/05/14 00:59:47;;;;;;;1.90;1.73;;;;;;;27.76;32.38;100559.75;7395172;19;20484;-85
2023/05/14 01:02:13;;;;;;;13.63;3.33;;;;;;;28.29;31.58;100563.09;7399571;19;20085;-85
2023/05/14 01:04:39;;;;;;;5.55;2.40;;;;;;;28.41;31.48;100549.09;7401606;19;20021;-86
2023/05/14 01:07:27;;;;;;;5.95;2.45;;;;;;;28.56;31.26;100553.94;7395755;19;20042;-85
2023/05/14 01:10:18;;;;;;;6.00;1.85;;;;;;;28.78;31.23;100550.16;7393135;19;20019;-86
2023/05/14 01:13:14;;;;;;;4.53;2.40;;;;;;;29.41;30.64;100539.03;7397978;19;20010;-85
2023/05/14 01:15:43;;;;;;;6.50;1.40;;;;;;;29.16;30.20;100544.84;7394776;19;20373;-85
2023/05/14 01:18:12;;;;;;;9.68;2.58;;;;;;;29.02;30.45;100543.63;7394086;19;20347;-85
2023/05/14 01:20:38;;;;;;;7.22;2.40;;;;;;;28.64;30.61;100526.00;7398805;19;20014;-85
2023/05/14 01:23:05;;;;;;;11.23;2.60;;;;;;;28.85;30.91;100534.97;7395643;19;20011;-84
2023/05/14 01:25:31;;;;;;;4.55;2.38;;;;;;;28.60;31.05;100525.66;7397031;19;20018;-85
2023/05/14 01:28:04;;;;;;;6.95;3.20;;;;;;;28.76;30.67;100529.91;7395735;19;20021;-85
2023/05/14 01:30:36;;;;;;;4.28;2.53;;;;;;;28.69;30.89;100539.34;7391761;19;20019;-85
2023/05/14 01:33:05;;;;;;;;;;;;;;;28.83;30.53;100537.66;7395268;19;20014;-84
2023/05/14 01:35:32;;;;;;;8.85;2.47;;;;;;;28.81;30.35;100529.66;7394050;19;19927;-85
2023/05/14 01:38:10;;;;;;;4.07;2.03;;;;;;;28.75;30.40;100531.25;7396881;19;20018;-86
2023/05/14 01:40:37;;;;;;;2.70;1.83;;;;;;;28.62;30.39;100528.69;7391201;19;20021;-85
2023/05/14 01:43:04;;;;;;;5.57;1.88;;;;;;;28.61;30.70;100527.91;7393538;19;20006;-85
2023/05/14 01:45:33;;;;;;;1.20;0.82;;;;;;;28.78;30.60;100530.84;7394650;19;20022;-84
2023/05/14 01:47:59;;;;;;;6.22;2.60;;;;;;;28.76;29.97;100515.56;7394827;19;20026;-85
2023/05/14 01:50:25;;;;;;;6.93;2.38;;;;;;;28.49;30.72;100516.16;7396664;19;20023;-85
2023/05/14 01:52:55;;;;;;;2.78;1.77;;;;;;;28.54;30.34;100505.81;7393489;19;20089;-85
2023/05/14 01:55:23;;;;;;;1.65;1.52;;;;;;;28.39;30.21;100512.41;7393616;19;20015;-85
2023/05/14 01:57:50;;;;;;;6.35;1.73;;;;;;;28.43;30.45;100507.03;7392670;19;20066;-85
2023/05/14 02:00:17;;;;;;;2.75;1.63;;;;;;;28.40;30.52;100513.16;7391663;19;20018;-85
2023/05/14 02:02:43;;;;;;;3.72;1.77;;;;;;;28.49;30.84;100489.59;7398613;19;20010;-84
2023/05/14 02:05:11;;;;;;;6.07;2.13;;;;;;;28.45;30.37;100498.63;7392598;19;20515;-84
2023/05/14 02:07:38;;;;;;;5.93;1.85;;;;;;;27.84;31.34;100491.75;7392536;19;20021;-84
2023/05/14 02:10:05;;;;;;;4.05;2.33;;;;;;;28.27;31.13;100487.66;7390873;19;20346;-84
2023/05/14 02:12:31;;;;;;;2.00;1.42;;;;;;;28.60;30.27;100482.66;7392333;19;20476;-84
2023/05/14 02:14:57;;;;;;;4.25;2.25;;;;;;;28.99;30.10;100481.69;7399618;19;20052;-84
2023/05/14 02:17:25;;;;;;;4.25;1.73;;;;;;;29.01;29.98;100478.97;7391456;19;20429;-84
2023/05/14 02:19:51;;;;;;;2.67;1.67;;;;;;;28.75;29.97;100479.63;7395872;19;20030;-84
2023/05/14 02:22:17;;;;;;;6.63;1.67;;;;;;;29.00;30.17;100478.22;7392506;19;20385;-85
2023/05/14 02:24:43;;;;;;;3.35;2.05;;;;;;;28.83;30.31;100477.44;7395382;19;20018;-85
2023/05/14 02:27:11;;;;;;;4.35;2.42;;;;;;;28.67;30.00;100473.22;7392780;19;20555;-84
2023/05/14 02:29:38;;;;;;;4.25;2.38;;;;;;;28.60;30.12;100474.03;7392937;19;20472;-84
2023/05/14 02:32:04;;;;;;;4.00;2.13;;;;;;;28.53;30.70;100464.91;7391517;19;20030;-84
2023/05/14 02:34:33;;;;;;;1.45;1.17;;;;;;;27.28;31.93;100470.25;7390973;19;20078;-84
2023/05/14 02:36:59;;;;;;;6.38;1.85;;;;;;;27.72;30.89;100471.38;7395376;19;20014;-83
2023/05/14 02:39:25;;;;;;;6.72;2.65;;;;;;;27.64;31.29;100467.81;7392259;19;20031;-84
2023/05/14 02:41:51;;;;;;;7.38;2.95;;;;;;;27.25;31.64;100464.91;7391591;19;20015;-84
2023/05/14 02:44:17;;;;;;;6.50;1.77;;;;;;;27.69;30.95;100466.06;7391272;19;20044;-84
2023/05/14 02:46:43;;;;;;;2.03;1.50;;;;;;;28.35;30.81;100456.88;7392817;19;20046;-83
2023/05/14 02:49:10;;;;;;;3.05;1.48;;;;;;;28.18;30.58;100451.06;7392674;19;20026;-83
2023/05/14 02:51:36;;;;;;;3.63;1.42;;;;;;;27.93;30.67;100453.91;7393715;19;20018;-83
2023/05/14 02:54:02;;;;;;;8.60;2.17;;;;;;;28.10;30.21;100462.59;7392385;19;20023;-84
2023/05/14 02:56:28;;;;;;;4.38;1.90;;;;;;;28.07;30.78;100460.16;7390929;19;20066;-84
2023/05/14 02:58:55;;;;;;;10.55;2.28;;;;;;;28.30;30.39;100458.63;7391813;19;20372;-84
2023/05/14 03:01:21;;;;;;;6.25;1.55;;;;;;;28.60;30.27;100462.56;7388955;19;20018;-84
2023/05/14 03:03:47;;;;;;;12.65;3.13;;;;;;;28.42;30.05;100456.78;7391239;19;20010;-84
2023/05/14 03:06:14;;;;;;;5.82;1.88;;;;;;;28.26;30.54;100454.66;7389712;19;20022;-84
2023/05/14 03:08:40;;;;;;;2.50;1.67;;;;;;;28.07;30.74;100457.28;7391206;19;20026;-84
2023/05/14 03:11:06;;;;;;;4.65;2.70;;;;;;;27.83;31.04;100447.25;7392368;19;20019;-84
2023/05/14 03:13:32;;;;;;;3.05;1.88;;;;;;;27.81;30.75;100449.97;7393238;19;20015;-84
2023/05/14 03:15:58;;;;;;;3.25;1.40;;;;;;;27.63;31.05;100449.13;7390567;19;20018;-84
2023/05/14 03:18:27;;;;;;;2.90;1.88;;;;;;;27.44;31.15;100443.09;7389925;19;20037;-84
2023/05/14 03:20:53;;;;;;;9.88;2.45;;;;;;;27.11;31.25;100437.88;7392289;19;20018;-84
2023/05/14 03:23:19;;;;;;;1.52;1.42;;;;;;;27.03;31.67;100444.38;7388293;19;20464;-84
2023/05/14 03:25:45;;;;;;;3.65;2.08;;;;;;;26.97;31.68;100431.63;7389486;19;20015;-83
2023/05/14 03:28:11;;;;;;;9.27;2.65;;;;;;;27.04;31.49;100436.56;7390524;19;20015;-84
2023/05/14 03:30:37;;;;;;;4.85;2.25;;;;;;;27.47;31.10;100418.28;7386474;19;20019;-83
2023/05/14 03:33:04;;;;;;;2.75;2.55;;;;;;;27.78;30.92;100419.66;7392184;19;20046;-84
2023/05/14 03:35:30;;;;;;;3.70;2.28;;;;;;;27.91;30.67;100416.50;7389516;19;20145;-84
2023/05/14 03:37:58;;;;;;;3.38;2.80;;;;;;;25.82;32.95;100425.75;7388759;19;20022;-84
2023/05/14 03:40:24;;;;;;;5.20;2.10;;;;;;;27.56;30.76;100417.69;7389363;19;20017;-84
2023/05/14 03:42:51;;;;;;;8.60;2.53;;;;;;;27.78;30.31;100411.06;7389116;19;20073;-83
2023/05/14 03:45:17;;;;;;;3.53;1.45;;;;;;;28.08;30.56;100421.56;7392674;19;20006;-83
2023/05/14 03:47:43;;;;;;;10.77;2.28;;;;;;;28.39;30.08;100412.09;7389022;19;20074;-83
2023/05/14 03:50:09;;;;;;;8.65;2.70;;;;;;;28.57;29.80;100415.78;7392222;19;20412;-84
2023/05/14 03:52:35;;;;;;;6.72;2.78;;;;;;;28.61;30.08;100410.38;7389597;19;20015;-84
2023/05/14 03:55:02;;;;;;;4.35;2.40;;;;;;;28.27;30.06;100401.72;7389699;19;20011;-84
2023/05/14 03:57:28;;;;;;;6.57;3.13;;;;;;;28.11;30.19;100406.81;7391864;19;20082;-83
2023/05/14 03:59:55;;;;;;;5.68;2.20;;;;;;;27.94;30.51;100409.59;7389582;19;20007;-83
2023/05/14 04:02:21;;;;;;;9.77;2.40;;;;;;;28.61;30.14;100404.66;7397986;19;20006;-84
2023/05/14 04:04:47;;;;;;;4.25;2.70;;;;;;;28.94;29.51;100406.00;7402558;19;20011;-83
2023/05/14 04:07:17;;;;;;;10.55;1.98;;;;;;;29.01;29.77;100413.00;7399475;19;20010;-84
2023/05/14 04:09:43;;;;;;;7.20;3.55;;;;;;;29.07;29.51;100407.78;7400926;19;20017;-84
2023/05/14 04:12:11;;;;;;;9.68;3.35;;;;;;;28.89;29.91;100412.03;7396070;19;20475;-84
2023/05/14 04:14:37;;;;;;;4.68;1.00;;;;;;;28.86;29.41;100413.19;7398354;19;20042;-84
2023/05/14 04:17:03;;;;;;;9.77;2.92;;;;;;;28.58;29.73;100407.94;7397255;19;20031;-84
2023/05/14 04:19:29;;;;;;;4.35;2.08;;;;;;;28.43;29.75;100408.84;7400585;19;20011;-84
2023/05/14 04:21:56;;;;;;;2.38;1.90;;;;;;;28.60;29.56;100406.00;7400343;19;20022;-83
2023/05/14 04:24:22;;;;;;;3.88;1.92;;;;;;;28.18;30.05;100397.41;7399280;19;20026;-84
2023/05/14 04:26:48;;;;;;;8.93;2.03;;;;;;;28.38;29.94;100395.50;7395952;19;20043;-84
2023/05/14 04:29:14;;;;;;;10.55;3.28;;;;;;;28.36;29.48;100390.38;7397746;19;20022;-84
2023/05/14 04:31:41;;;;;;;4.03;0.90;;;;;;;28.34;30.04;100395.16;7400278;19;20031;-84
2023/05/14 04:34:08;;;;;;;13.52;2.45;;;;;;;28.44;29.91;100391.03;7397201;19;20108;-83
2023/05/14 04:36:34;;;;;;;7.85;2.78;;;;;;;28.49;30.03;100395.00;7396973;19;20018;-84
2023/05/14 04:39:00;;;;;;;6.35;2.88;;;;;;;28.35;30.28;100397.44;7396594;19;20015;-83
2023/05/14 04:41:26;;;;;;;3.70;2.03;;;;;;;28.08;30.58;100390.81;7394645;19;20014;-84
2023/05/14 04:43:55;;;;;;;7.88;2.25;;;;;;;27.57;30.94;100387.72;7401190;19;20019;-84
2023/05/14 04:46:21;;;;;;;10.13;1.55;;;;;;;27.61;30.87;100388.09;7396170;19;20010;-84
2023/05/14 04:48:48;;;;;;;2.58;1.55;;;;;;;27.48;31.17;100388.34;7395501;19;20102;-86
2023/05/14 04:51:14;;;;;;;5.90;2.92;;;;;;;27.61;31.42;100388.81;7397915;19;20023;-88
2023/05/14 04:53:40;;;;;;;6.50;1.85;;;;;;;28.10;30.81;100385.25;7401288;19;20015;-91
2023/05/14 04:56:06;;;;;;;14.90;3.25;;;;;;;28.34;30.51;100390.19;7398984;19;20062;-88
2023/05/14 04:58:32;;;;;;;7.82;3.08;;;;;;;28.62;30.80;100391.09;7395785;19;20015;-89
2023/05/14 05:00:58;;;;;;;2.28;1.95;;;;;;;28.82;30.44;100387.03;7396481;19;20011;-89
2023/05/14 05:03:25;;;;;;;5.75;3.30;;;;;;;28.67;30.45;100384.34;7397221;19;20090;-91
2023/05/14 05:05:51;;;;;;;4.80;2.33;;;;;;;28.81;30.60;100385.53;7399711;19;20051;-88
2023/05/14 05:08:17;;;;;;;5.50;2.70;;;;;;;28.89;30.77;100386.22;7395792;19;20041;-88
2023/05/14 05:10:43;;;;;;;3.13;2.53;;;;;;;29.10;30.63;100378.69;7394681;19;20373;-88
2023/05/14 05:13:10;;;;;;;3.00;2.00;;;;;;;29.01;30.82;100367.13;7399334;19;20010;-88
2023/05/14 05:15:36;;;;;;;4.30;2.33;;;;;;;29.05;30.86;100367.44;7399093;19;20498;-89
2023/05/14 05:18:02;;;;;;;3.42;2.53;;;;;;;29.11;30.54;100376.53;7399538;19;20007;-89
2023/05/14 05:20:28;;;;;;;3.42;1.88;;;;;;;29.07;30.61;100373.34;7401009;19;20510;-89
2023/05/14 05:22:54;;;;;;;3.05;2.80;;;;;;;29.01;30.42;100376.50;7397659;19;20019;-89
2023/05/14 05:25:20;;;;;;;5.90;1.77;;;;;;;28.97;30.88;100381.91;7398472;19;20476;-89
2023/05/14 05:27:46;;;;;;;4.22;2.28;;;;;;;28.92;30.98;100371.44;7396430;19;20019;-89
2023/05/14 05:30:13;;;;;;;3.47;2.10;;;;;;;29.12;30.98;100375.19;7395611;19;20007;-90
2023/05/14 05:32:39;;;;;;;3.95;2.88;;;;;;;29.44;30.99;100380.72;7399880;19;20021;-89
2023/05/14 05:35:05;;;;;;;4.43;2.20;;;;;;;29.75;30.21;100373.22;7400270;19;20019;-90
2023/05/14 05:37:32;;;;;;;5.60;4.22;;;;;;;30.10;29.75;100375.91;7401166;19;20021;-90
2023/05/14 05:39:58;;;;;;;15.57;3.38;;;;;;;29.80;30.10;100369.28;7399932;19;20011;-90
2023/05/14 05:42:24;;;;;;;7.50;2.42;;;;;;;29.89;30.66;100376.41;7399581;19;20038;-90
2023/05/14 05:44:50;;;;;;;5.07;2.75;;;;;;;29.97;30.43;100359.84;7400605;19;20062;-90
2023/05/14 05:47:17;;;;;;;4.88;3.10;;;;;;;30.23;30.09;100364.00;7397230;19;20015;-90
2023/05/14 05:49:43;;;;;;;5.80;1.60;;;;;;;30.05;30.31;100359.69;7398380;19;20019;-90
2023/05/14 05:52:09;;;;;;;4.53;2.42;;;;;;;29.88;30.60;100366.31;7402432;19;20329;-90
2023/05/14 05:54:35;;;;;;;7.03;3.22;;;;;;;29.70;30.43;100364.84;7399013;19;20010;-91
2023/05/14 05:57:01;;;;;;;5.80;2.50;;;;;;;29.38;30.96;100357.28;7401271;19;20015;-90
2023/05/14 05:59:27;;;;;;;3.30;2.50;;;;;;;29.38;31.29;100347.91;7396636;19;20022;-90
2023/05/14 06:01:54;;;;;;;11.68;3.92;;;;;;;29.62;31.26;100342.00;7397219;19;20010;-89
2023/05/14 06:04:20;;;;;;;6.32;2.67;;;;;;;29.91;30.86;100340.00;7409859;19;20014;-89
2023/05/14 06:06:46;;;;;;;8.30;3.25;;;;;;;30.09;30.89;100340.66;7410908;19;20086;-90
2023/05/14 06:09:12;;;;;;;6.75;2.65;;;;;;;29.95;31.06;100346.06;7412377;19;20393;-88
2023/05/14 06:11:38;;;;;;;7.90;2.60;;;;;;;30.14;30.71;100342.50;7412839;19;20015;-90
2023/05/14 06:14:04;;;;;;;6.30;3.13;;;;;;;30.74;30.91;100343.47;7407457;19;20019;-89
2023/05/14 06:16:31;;;;;;;5.75;3.63;;;;;;;31.14;30.44;100328.47;7396689;19;20078;-89
2023/05/14 06:18:57;;;;;;;7.30;3.25;;;;;;;31.10;30.72;100328.19;7396003;19;20360;-90
2023/05/14 06:21:23;;;;;;;6.47;1.60;;;;;;;31.10;30.78;100333.94;7394568;19;20408;-90
2023/05/14 06:23:49;;;;;;;13.30;2.55;;;;;;;30.90;30.89;100326.69;7387500;19;20050;-89
2023/05/14 06:26:15;;;;;;;8.73;3.65;;;;;;;31.18;30.57;100323.78;7393545;19;20469;-89
2023/05/14 06:28:41;;;;;;;7.88;2.85;;;;;;;31.38;30.38;100319.47;7391985;19;20026;-89
2023/05/14 06:31:07;;;;;;;3.38;1.77;;;;;;;31.53;30.50;100317.63;7398316;19;20464;-89
2023/05/14 06:33:33;;;;;;;3.83;2.60;;;;;;;31.62;30.29;100316.84;7395055;19;20014;-89
2023/05/14 06:36:04;;;;;;;3.75;1.92;;;;;;;31.77;30.30;100330.88;7392529;19;20025;-89
2023/05/14 06:38:30;;;;;;;5.40;3.17;;;;;;;31.90;29.84;100328.19;7391514;19;20611;-88
2023/05/14 06:40:56;;;;;;;13.25;3.55;;;;;;;32.12;30.20;100317.50;7395351;19;20152;-89
2023/05/14 06:43:22;;;;;;;4.38;2.35;;;;;;;32.44;29.88;100322.59;7394003;19;20014;-89
2023/05/14 06:45:49;;;;;;;4.03;2.45;;;;;;;32.95;29.58;100320.19;7391827;19;20050;-87
2023/05/14 06:48:17;;;;;;;9.05;3.33;;;;;;;33.08;29.53;100316.75;7392179;19;20011;-88
2023/05/14 06:50:44;;;;;;;9.25;3.00;;;;;;;20.08;54.13;100339.47;7393244;19;20015;-89
2023/05/14 06:53:11;;;;;;;11.05;2.97;;;;;;;15.39;100.00;100341.94;7393136;19;20354;-90
2023/05/14 06:55:37;;;;;;;5.15;2.22;;;;;;;14.50;100.00;100340.22;7391831;19;20026;-88
2023/05/14 06:58:05;;;;;;;6.75;2.65;;;;;;;14.10;100.00;100345.75;7390983;19;20018;-88
2023/05/14 07:00:32;;;;;;;8.68;4.03;;;;;;;14.10;100.00;100331.75;7392234;19;20011;-91
2023/05/14 07:02:58;;;;;;;5.85;3.25;;;;;;;15.01;100.00;100343.09;7396226;19;20465;-91
2023/05/14 07:05:24;;;;;;;9.23;2.70;;;;;;;15.01;100.00;100337.50;7394242;19;20537;-91
2023/05/14 07:07:54;;;;;;;11.65;4.30;;;;;;;14.60;100.00;100344.41;7394332;19;20070;-91
2023/05/14 07:10:20;;;;;;;12.63;4.38;;;;;;;14.59;100.00;100337.28;7395007;19;20018;-91
2023/05/14 07:12:46;;;;;;;7.38;2.60;;;;;;;14.70;100.00;100356.25;7397438;19;20021;-91
2023/05/14 07:15:12;;;;;;;5.65;3.05;;;;;;;14.57;100.00;100342.59;7397720;19;20041;-90
2023/05/14 07:17:38;;;;;;;16.48;4.35;;;;;;;16.29;100.00;100335.69;7393059;19;20022;-90
2023/05/14 07:20:05;;;;;;;6.40;3.03;;;;;;;15.22;100.00;100335.41;7394102;19;20014;-91
2023/05/14 07:22:31;;;;;;;6.78;3.13;;;;;;;15.10;100.00;100331.72;7391733;19;20070;-90
2023/05/14 07:24:58;;;;;;;6.20;2.42;;;;;;;15.25;100.00;100333.63;7392478;19;20346;-90
2023/05/14 07:27:24;;;;;;;6.80;2.83;;;;;;;15.69;100.00;100328.44;7392138;19;20026;-91
2023/05/14 07:29:50;;;;;;;7.38;2.63;;;;;;;15.55;100.00;100335.72;7392843;19;20011;-91
2023/05/14 07:32:16;;;;;;;7.90;3.30;;;;;;;15.33;100.00;100327.09;7394891;19;20015;-91
2023/05/14 07:34:42;;;;;;;10.45;4.10;;;;;;;15.20;100.00;100327.47;7398311;19;20483;-91
2023/05/14 07:37:09;;;;;;;10.95;3.40;;;;;;;16.37;100.00;100320.66;7402717;19;20512;-91
2023/05/14 07:39:35;;;;;;;14.57;4.30;;;;;;;29.60;68.47;100301.66;7402765;19;20034;-90
2023/05/14 07:42:01;;;;;;;9.55;2.85;;;;;;;32.69;48.08;100305.56;7403142;19;20029;-92
2023/05/14 07:44:27;;;;;;;10.80;4.10;;;;;;;33.63;43.78;100304.44;7404748;19;20406;-91
2023/05/14 07:46:53;;;;;;;13.73;3.88;;;;;;;34.92;39.33;100294.84;7401863;19;20077;-91
2023/05/14 07:49:19;;;;;;;10.85;3.17;;;;;;;35.10;38.37;100289.34;7400794;19;20011;-92
2023/05/14 07:51:45;;;;;;;12.50;3.95;;;;;;;30.41;43.74;100299.28;7403520;19;20093;-91
2023/05/14 07:54:12;;;;;;;12.27;3.67;;;;;;;28.54;48.67;100303.03;7401635;19;20014;-91
2023/05/14 07:56:38;;;;;;;9.75;3.63;;;;;;;26.70;54.40;100301.94;7402193;19;20035;-92
2023/05/14 07:59:05;;;;;;;16.80;4.65;;;;;;;26.78;55.92;100297.75;7400891;19;20014;-90
2023/05/14 08:01:32;;;;;;;10.68;3.72;;;;;;;26.50;58.00;100292.31;7399857;19;20014;-91
2023/05/14 08:03:58;;;;;;;8.13;3.25;;;;;;;27.02;58.54;100282.00;7398923;19;20489;-91
2023/05/14 08:06:26;;;;;;;11.30;3.15;;;;;;;28.66;53.96;100283.25;7398419;19;20019;-91
2023/05/14 08:08:52;;;;;;;6.13;2.28;;;;;;;30.19;50.01;100277.47;7398943;19;20044;-90
2023/05/14 08:11:18;;;;;;;9.95;3.80;;;;;;;29.36;49.63;100282.50;7402317;19;20427;-90
2023/05/14 08:13:44;;;;;;;5.20;2.70;;;;;;;29.56;49.42;100271.84;7401173;19;20006;-90
2023/05/14 08:16:11;;;;;;;5.75;2.58;;;;;;;33.60;41.73;100268.13;7402168;19;20006;-89
2023/05/14 08:18:37;;;;;;;10.70;4.30;;;;;;;33.93;40.10;100262.94;7399699;19;20361;-89
2023/05/14 08:21:03;;;;;;;10.68;4.20;;;;;;;31.15;43.22;100270.31;7397633;19;20034;-90
2023/05/14 08:23:29;;;;;;;9.63;4.47;;;;;;;28.99;49.67;100270.22;7399691;19;20022;-89
2023/05/14 08:25:55;;;;;;;7.40;2.70;;;;;;;35.70;39.02;100261.56;7401163;19;20078;-90
2023/05/14 08:28:21;;;;;;;9.35;4.40;;;;;;;37.53;35.12;100254.75;7399941;19;20019;-90
2023/05/14 08:30:47;;;;;;;9.02;3.38;;;;;;;38.18;34.11;100253.31;7398100;19;20044;-90
2023/05/14 08:33:14;;;;;;;9.40;3.42;;;;;;;38.14;32.94;100241.50;7399889;19;20018;-90
2023/05/14 08:35:40;;;;;;;12.00;4.38;;;;;;;38.25;32.60;100246.34;7398726;19;20025;-90
2023/05/14 08:38:06;;;;;;;13.68;3.22;;;;;;;38.42;31.47;100245.63;7399226;19;20035;-90
2023/05/14 08:40:32;;;;;;;11.90;3.60;;;;;;;35.92;34.09;100252.53;7399847;19;20014;-90
2023/05/14 08:42:59;;;;;;;9.52;3.78;;;;;;;35.93;34.25;100243.19;7401957;19;20477;-90
2023/05/14 08:45:32;;;;;;;7.95;2.60;;;;;;;35.70;34.11;100234.72;7400811;19;20362;-89
2023/05/14 08:48:04;;;;;;;8.40;3.63;;;;;;;36.12;33.50;100242.78;7401358;19;20029;-90
2023/05/14 08:50:31;;;;;;;3.47;1.73;;;;;;;36.19;33.87;100229.34;7399854;19;20385;-90
2023/05/14 08:52:57;;;;;;;9.43;3.42;;;;;;;36.48;33.63;100220.66;7401941;19;20018;-90
2023/05/14 08:55:25;;;;;;;13.38;4.00;;;;;;;36.56;32.84;100221.03;7396433;19;20014;-91
2023/05/14 08:57:51;;;;;;;7.00;3.13;;;;;;;37.22;33.17;100221.38;7396645;19;20019;-90
2023/05/14 09:00:18;;;;;;;7.35;3.08;;;;;;;37.51;32.68;100213.97;7393611;19;20010;-90
2023/05/14 09:02:45;;;;;;;8.90;3.15;;;;;;;37.77;32.71;100215.13;7395599;19;20025;-90
2023/05/14 09:05:12;;;;;;;9.10;2.83;;;;;;;38.15;32.39;100211.00;7396538;19;20014;-91
2023/05/14 09:07:38;;;;;;;12.73;3.72;;;;;;;38.21;31.76;100211.25;7397096;19;20022;-90
2023/05/14 09:10:05;;;;;;;7.78;3.35;;;;;;;38.19;31.95;100211.16;7394493;19;20019;-90
2023/05/14 09:12:31;;;;;;;13.18;3.85;;;;;;;37.57;32.06;100214.22;7397587;19;20011;-90
2023/05/14 09:14:57;;;;;;;7.93;3.10;;;;;;;37.29;31.97;100207.88;7394866;19;20035;-90
2023/05/14 09:17:26;;;;;;;12.93;4.28;;;;;;;37.40;32.13;100206.94;7399090;19;20007;-91
2023/05/14 09:19:52;;;;;;;7.07;2.97;;;;;;;37.76;31.60;100205.66;7397735;19;20805;-91
2023/05/14 09:22:19;;;;;;;7.70;2.75;;;;;;;37.79;31.76;100197.78;7395500;19;20022;-91
2023/05/14 09:25:00;;;;;;;7.38;2.85;;;;;;;39.35;30.55;100199.84;7396158;19;20366;-91
2023/05/14 09:27:29;;;;;;;3.10;2.22;;;;;;;39.45;30.13;100197.28;7395156;19;20014;-89
2023/05/14 09:29:55;;;;;;;10.75;3.22;;;;;;;39.78;29.64;100194.16;7392847;19;20361;-90
2023/05/14 09:32:21;;;;;;;4.93;2.17;;;;;;;40.11;29.43;100190.94;7395619;19;20539;-89
2023/05/14 09:34:47;;;;;;;9.13;2.42;;;;;;;40.20;29.29;100185.41;7396670;19;20024;-90
2023/05/14 09:37:13;;;;;;;5.22;1.90;;;;;;;40.63;28.01;100179.53;7395424;19;20054;-90
2023/05/14 09:39:39;;;;;;;6.82;2.35;;;;;;;40.68;27.77;100184.81;7395410;19;20491;-91
2023/05/14 09:42:05;;;;;;;8.30;2.90;;;;;;;40.89;26.71;100183.28;7394693;19;20369;-90
2023/05/14 09:44:32;;;;;;;6.85;2.33;;;;;;;40.91;26.85;100183.34;7395734;19;20014;-89
2023/05/14 09:46:58;;;;;;;6.47;2.33;;;;;;;41.00;26.94;100188.00;7394256;19;20033;-91
2023/05/14 09:49:24;;;;;;;9.73;2.38;;;;;;;40.67;26.23;100180.41;7396552;19;20366;-90
2023/05/14 09:51:50;;;;;;;5.88;1.30;;;;;;;40.47;26.45;100184.84;7395015;19;20069;-89
2023/05/14 09:54:17;;;;;;;4.88;1.70;;;;;;;40.27;26.52;100178.31;7396318;19;20606;-90
2023/05/14 09:56:43;;;;;;;3.20;1.58;;;;;;;40.09;26.22;100187.94;7394015;19;20050;-89
2023/05/14 09:59:10;;;;;;;8.57;2.22;;;;;;;39.81;26.00;100181.13;7393862;19;20021;-89
2023/05/14 10:01:37;;;;;;;11.05;2.35;;;;;;;39.61;26.32;100186.25;7393190;19;20030;-89
2023/05/14 10:04:06;;;;;;;6.75;2.20;;;;;;;39.69;26.19;100174.88;7396603;19;20014;-89
2023/05/14 10:06:36;;;;;;;6.05;1.70;;;;;;;40.05;25.63;100170.31;7394013;19;20027;-89
2023/05/14 10:09:07;;;;;;;6.05;2.35;;;;;;;39.91;25.88;100172.72;7391354;19;20018;-89
2023/05/14 10:11:36;;;;;;;8.32;2.38;;;;;;;40.39;26.29;100169.97;7394385;19;20014;-90
2023/05/14 10:14:21;;;;;;;5.03;1.52;;;;;;;40.58;25.68;100166.22;7394000;19;20038;-90
2023/05/14 10:16:49;;;;;;;3.53;1.38;;;;;;;40.78;25.96;100167.56;7396963;19;20011;-90
2023/05/14 10:19:18;;;;;;;6.80;1.60;;;;;;;40.65;25.53;100170.81;7394138;19;20015;-89
2023/05/14 10:21:52;;;;;;;5.38;1.75;;;;;;;40.54;25.64;100183.63;7391811;19;20019;-90
2023/05/14 10:24:20;;;;;;;4.07;1.95;;;;;;;40.65;25.76;100176.66;7391850;19;20014;-90
2023/05/14 10:26:48;;;;;;;3.28;1.23;;;;;;;40.35;26.17;100178.59;7392032;19;20010;-88
2023/05/14 10:29:16;;;;;;;4.65;1.92;;;;;;;40.40;26.34;100174.34;7393447;19;20038;-88
2023/05/14 10:31:48;;;;;;;3.63;1.38;;;;;;;40.60;26.20;100180.88;7392833;19;20015;-89
2023/05/14 10:34:33;;;;;;;7.78;1.63;;;;;;;40.71;25.13;100179.78;7392753;19;20014;-89
2023/05/14 10:37:01;;;;;;;5.25;1.55;;;;;;;40.72;25.08;100182.00;7394323;19;20089;-89
2023/05/14 10:39:52;;;;;;;4.82;1.45;;;;;;;40.89;24.96;100165.75;7393006;19;20010;-88
2023/05/14 10:42:21;;;;;;;1.38;0.98;;;;;;;41.08;25.29;100173.63;7392026;19;20044;-87
2023/05/14 10:45:09;;;;;;;2.67;1.00;;;;;;;41.05;24.89;100163.31;7392201;19;20018;-88
2023/05/14 10:47:38;;;;;;;3.70;1.48;;;;;;;41.10;24.73;100159.09;7392091;19;20007;-87
2023/05/14 10:50:07;;;;;;;2.05;0.77;;;;;;;41.03;24.86;100150.81;7395869;19;20011;-87
2023/05/14 10:52:34;;;;;;;2.30;0.65;;;;;;;41.05;24.34;100147.94;7392374;19;20018;-87
2023/05/14 10:55:02;;;;;;;3.20;0.77;;;;;;;40.98;24.54;100143.38;7390076;19;20039;-86
2023/05/14 10:57:30;;;;;;;3.83;0.82;;;;;;;40.60;23.79;100140.75;7391332;19;20015;-85
2023/05/14 10:59:58;;;;;;;2.63;0.98;;;;;;;40.88;24.38;100146.72;7394112;19;20074;-86
2023/05/14 11:02:30;;;;;;;1.50;0.63;;;;;;;40.58;25.06;100142.84;7391973;19;20029;-86
2023/05/14 11:04:59;;;;;;;1.70;0.73;;;;;;;40.73;24.55;100130.19;7395782;19;20033;-86
2023/05/14 11:07:31;;;;;;;1.95;0.40;;;;;;;40.78;25.15;100131.78;7390411;19;20021;-86
2023/05/14 11:10:11;;;;;;;2.97;0.60;;;;;;;40.64;24.29;100114.56;7392879;19;20085;-87
2023/05/14 11:12:40;;;;;;;1.67;0.77;;;;;;;40.42;24.33;100125.56;7391757;19;20026;-87
2023/05/14 11:15:11;;;;;;;2.65;0.60;;;;;;;40.73;23.68;100118.50;7390283;19;20018;-86
2023/05/14 11:17:40;;;;;;;4.13;1.30;;;;;;;40.87;24.15;100116.00;7394260;19;20074;-89
2023/05/14 11:20:07;;;;;;;3.28;1.25;;;;;;;41.33;24.19;100120.28;7396003;19;20049;-90
2023/05/14 11:22:34;;;;;;;5.85;1.08;;;;;;;41.58;23.70;100126.81;7395805;19;20425;-90
2023/05/14 11:25:01;;;;;;;4.40;1.50;;;;;;;41.94;23.67;100121.91;7392708;19;20021;-89